Time;durP1;ratioP1;P1;durP2;ratioP2;P2;SDS_P1;SDS_P2;PMS_P1;PMS_P2;Temp;Humidity;BMP_temperature;BMP_pressure;BME280_temperature;BME280_humidity;BME280_pressure;Samples;Min_cycle;Max_cycle;Signal;HPM_P1;HPM_P2
2023/11/08 00:01:34;;;;;;;;;;;16.20;91.10;;;;;;6070672;23;19908;-76
2023/11/08 00:04:00;;;;;;;;;;;16.30;91.30;;;;;;6096216;23;20285;-75
2023/11/08 00:06:26;;;;;;;;;;;16.30;91.40;;;;;;6096380;23;19913;-75
2023/11/08 00:08:52;;;;;;;;;;;16.30;91.30;;;;;;6096186;23;19909;-75
2023/11/08 00:11:20;;;;;;;;;;;16.40;91.50;;;;;;6096292;23;20313;-76
2023/11/08 00:13:45;;;;;;;;;;;16.30;91.60;;;;;;6096276;23;19901;-76
2023/11/08 00:16:11;;;;;;;;;;;16.30;91.50;;;;;;6096211;23;20365;-76
2023/11/08 00:18:36;;;;;;;;;;;16.30;91.50;;;;;;6096931;23;19902;-76
2023/11/08 00:21:05;;;;;;;;;;;16.40;91.80;;;;;;6096451;23;19905;-76
2023/11/08 00:23:31;;;;;;;;;;;16.30;91.10;;;;;;6097075;23;19901;-76
2023/11/08 00:25:57;;;;;;;;;;;16.30;91.80;;;;;;6096532;23;19910;-75
2023/11/08 00:28:23;;;;;;;;;;;16.40;91.50;;;;;;6096279;23;19901;-75
2023/11/08 00:30:49;;;;;;;;;;;16.30;91.40;;;;;;6096777;23;19907;-76
2023/11/08 00:33:16;;;;;;;;;;;16.40;91.50;;;;;;6096777;23;19976;-76
2023/11/08 00:35:42;;;;;;;;;;;16.50;91.40;;;;;;6096677;23;20245;-76
2023/11/08 00:38:08;;;;;;;;;;;16.40;91.40;;;;;;6097584;23;19930;-76
2023/11/08 00:40:34;;;;;;;;;;;16.40;91.40;;;;;;6098165;23;19901;-76
2023/11/08 00:43:00;;;;;;;;;;;16.30;91.40;;;;;;6098127;23;19976;-76
2023/11/08 00:45:26;;;;;;;;;;;16.30;91.50;;;;;;6098389;23;19968;-76
2023/11/08 00:47:53;;;;;;;;;;;16.40;91.40;;;;;;6098172;23;19976;-75
2023/11/08 00:50:19;;;;;;;;;;;16.30;91.20;;;;;;6098531;23;20313;-76
2023/11/08 00:52:44;;;;;;;;;;;16.30;91.40;;;;;;6097937;23;19972;-75
2023/11/08 00:55:10;;;;;;;;;;;16.40;91.50;;;;;;6097781;23;19998;-75
2023/11/08 00:57:36;;;;;;;;;;;16.40;91.50;;;;;;6097784;23;20329;-76
2023/11/08 01:00:07;;;;;;;;;;;16.30;91.60;;;;;;6097629;23;19913;-75
2023/11/08 01:02:33;;;;;;;;;;;16.30;91.30;;;;;;6102492;23;19935;-76
2023/11/08 01:04:58;;;;;;;;;;;16.40;91.50;;;;;;6097549;23;20345;-76
2023/11/08 01:07:24;;;;;;;;;;;16.40;91.60;;;;;;6098235;23;19908;-76
2023/11/08 01:09:49;;;;;;;;;;;16.40;91.70;;;;;;6097633;23;19901;-76
2023/11/08 01:12:16;;;;;;;;;;;16.30;91.70;;;;;;6098234;23;19908;-76
2023/11/08 01:14:42;;;;;;;;;;;16.30;91.80;;;;;;6097465;23;19901;-75
2023/11/08 01:17:08;;;;;;;;;;;16.30;91.80;;;;;;6097547;23;20226;-76
2023/11/08 01:19:36;;;;;;;;;;;16.50;91.80;;;;;;6098666;23;19901;-75
2023/11/08 01:22:05;;;;;;;;;;;16.40;91.70;;;;;;6098024;23;19901;-76
2023/11/08 01:24:32;;;;;;;;;;;16.40;91.80;;;;;;6097670;23;20238;-75
2023/11/08 01:27:00;;;;;;;;;;;16.50;91.80;;;;;;6098082;23;19901;-75
2023/11/08 01:29:25;;;;;;;;;;;16.40;91.80;;;;;;6097538;23;19980;-76
2023/11/08 01:31:51;;;;;;;;;;;16.40;91.60;;;;;;6107296;23;19938;-72
2023/11/08 01:34:16;;;;;;;;;;;16.60;91.80;;;;;;6097340;23;20356;-72
2023/11/08 01:36:43;;;;;;;;;;;16.40;91.80;;;;;;6097357;23;19901;-71
2023/11/08 01:39:08;;;;;;;;;;;16.40;91.80;;;;;;6097298;23;19957;-72
2023/11/08 01:41:34;;;;;;;;;;;16.40;91.80;;;;;;6097276;23;19905;-72
2023/11/08 01:44:00;;;;;;;;;;;16.30;91.60;;;;;;6097295;23;19905;-72
2023/11/08 01:46:27;;;;;;;;;;;16.50;91.60;;;;;;6097507;23;20377;-72
2023/11/08 01:48:52;;;;;;;;;;;16.50;91.80;;;;;;6097290;23;19949;-72
2023/11/08 01:51:18;;;;;;;;;;;16.40;91.70;;;;;;6097484;23;19901;-72
2023/11/08 01:53:45;;;;;;;;;;;16.60;91.80;;;;;;6097136;23;19955;-72
2023/11/08 01:56:10;;;;;;;;;;;16.50;91.80;;;;;;6097186;23;19908;-72
2023/11/08 01:58:37;;;;;;;;;;;16.40;91.70;;;;;;6072397;23;19905;-72
2023/11/08 02:01:07;;;;;;;;;;;16.50;91.80;;;;;;6096977;23;19901;-72
2023/11/08 02:03:39;;;;;;;;;;;16.50;91.60;;;;;;6096859;23;19929;-71
2023/11/08 02:06:10;;;;;;;;;;;16.60;91.90;;;;;;6096971;23;20244;-72
2023/11/08 02:08:36;;;;;;;;;;;16.50;91.80;;;;;;6107196;23;19956;-71
2023/11/08 02:11:02;;;;;;;;;;;16.40;91.70;;;;;;6106754;23;19905;-72
2023/11/08 02:13:34;;;;;;;;;;;16.40;91.80;;;;;;6097410;23;19907;-72
2023/11/08 02:16:00;;;;;;;;;;;16.40;91.70;;;;;;6097765;23;20377;-72
2023/11/08 02:18:26;;;;;;;;;;;16.40;91.70;;;;;;6097523;23;19905;-72
2023/11/08 02:20:52;;;;;;;;;;;16.40;91.80;;;;;;6097476;23;19981;-72
2023/11/08 02:23:18;;;;;;;;;;;16.50;91.80;;;;;;6096888;23;19940;-72
2023/11/08 02:25:45;;;;;;;;;;;16.50;91.70;;;;;;6096621;23;19909;-72
2023/11/08 02:28:11;;;;;;;;;;;16.40;91.70;;;;;;6097546;23;19975;-72
2023/11/08 02:30:36;;;;;;;;;;;16.40;91.70;;;;;;6097408;23;19909;-72
2023/11/08 02:33:02;;;;;;;;;;;16.40;91.70;;;;;;6096818;23;19929;-72
2023/11/08 02:35:27;;;;;;;;;;;16.50;91.70;;;;;;6097304;23;19901;-72
2023/11/08 02:37:53;;;;;;;;;;;16.50;91.80;;;;;;6096747;23;19953;-72
2023/11/08 02:40:18;;;;;;;;;;;16.40;91.80;;;;;;6096750;23;19901;-72
2023/11/08 02:42:45;;;;;;;;;;;16.40;91.90;;;;;;6096659;23;19929;-71
2023/11/08 02:45:11;;;;;;;;;;;16.40;91.80;;;;;;6097137;23;19932;-72
2023/11/08 02:47:37;;;;;;;;;;;16.50;91.70;;;;;;6096642;23;20317;-72
2023/11/08 02:50:03;;;;;;;;;;;16.40;91.80;;;;;;6096617;23;19905;-72
2023/11/08 02:52:29;;;;;;;;;;;16.50;91.40;;;;;;6106330;23;19901;-72
2023/11/08 02:54:54;;;;;;;;;;;16.40;91.70;;;;;;6096667;23;19965;-72
2023/11/08 02:57:20;;;;;;;;;;;16.40;91.80;;;;;;6097015;23;20313;-72
2023/11/08 02:59:46;;;;;;;;;;;16.40;91.70;;;;;;6096515;23;19912;-72
2023/11/08 03:02:11;;;;;;;;;;;16.30;91.40;;;;;;6096230;23;19913;-72
2023/11/08 03:04:37;;;;;;;;;;;16.50;91.70;;;;;;6096447;23;19943;-72
2023/11/08 03:07:03;;;;;;;;;;;16.40;91.70;;;;;;6096327;23;19976;-72
2023/11/08 03:09:29;;;;;;;;;;;16.40;91.90;;;;;;6097001;23;19928;-72
2023/11/08 03:11:57;;;;;;;;;;;16.40;91.80;;;;;;6096427;23;20233;-71
2023/11/08 03:14:23;;;;;;;;;;;16.40;91.60;;;;;;6097024;23;19908;-72
2023/11/08 03:16:49;;;;;;;;;;;16.30;91.40;;;;;;6096457;23;19924;-72
2023/11/08 03:19:14;;;;;;;;;;;16.40;91.70;;;;;;6096382;23;20237;-72
2023/11/08 03:21:44;;;;;;;;;;;16.40;91.70;;;;;;6096360;23;19909;-72
2023/11/08 03:24:10;;;;;;;;;;;16.40;89.30;;;;;;6096527;23;19908;-72
2023/11/08 03:26:35;;;;;;;;;;;16.40;91.70;;;;;;6096374;23;19913;-72
2023/11/08 03:29:00;;;;;;;;;;;16.40;91.70;;;;;;6096301;23;19988;-72
2023/11/08 03:31:27;;;;;;;;;;;16.40;91.70;;;;;;6096420;23;19968;-72
2023/11/08 03:33:52;;;;;;;;;;;16.40;91.50;;;;;;6096456;23;19901;-72
2023/11/08 03:36:17;;;;;;;;;;;16.40;91.70;;;;;;6096363;23;19901;-72
2023/11/08 03:38:43;;;;;;;;;;;16.60;91.80;;;;;;6096339;23;19908;-72
2023/11/08 03:41:08;;;;;;;;;;;16.30;91.80;;;;;;6096925;23;19901;-72
2023/11/08 03:43:35;;;;;;;;;;;16.50;91.70;;;;;;6096354;23;19901;-72
2023/11/08 03:46:00;;;;;;;;;;;16.40;91.60;;;;;;6096235;23;20368;-72
2023/11/08 03:48:26;;;;;;;;;;;16.40;91.70;;;;;;6070727;23;19905;-72
2023/11/08 03:50:51;;;;;;;;;;;16.70;91.80;;;;;;6096236;23;19936;-72
2023/11/08 03:53:17;;;;;;;;;;;16.40;91.60;;;;;;6097034;23;19976;-72
2023/11/08 03:55:42;;;;;;;;;;;16.50;91.70;;;;;;6096314;23;19901;-72
2023/11/08 03:58:08;;;;;;;;;;;16.40;91.60;;;;;;6096632;23;19909;-72
2023/11/08 04:00:33;;;;;;;;;;;16.30;91.60;;;;;;6096325;23;20348;-72
2023/11/08 04:02:59;;;;;;;;;;;16.30;91.40;;;;;;6095946;23;19950;-72
2023/11/08 04:05:29;;;;;;;;;;;16.30;91.60;;;;;;6096140;23;19909;-72
2023/11/08 04:07:55;;;;;;;;;;;16.40;91.60;;;;;;6096252;23;20340;-72
2023/11/08 04:10:21;;;;;;;;;;;16.40;91.70;;;;;;6096989;23;19908;-72
2023/11/08 04:12:47;;;;;;;;;;;16.40;91.50;;;;;;6097772;23;19901;-72
2023/11/08 04:15:12;;;;;;;;;;;16.40;91.70;;;;;;6098016;23;19901;-72
2023/11/08 04:17:38;;;;;;;;;;;16.40;91.60;;;;;;6098260;23;19901;-72
2023/11/08 04:20:04;;;;;;;;;;;16.40;91.60;;;;;;6098019;23;19941;-72
2023/11/08 04:22:30;;;;;;;;;;;16.30;90.90;;;;;;6098267;23;19948;-72
2023/11/08 04:24:55;;;;;;;;;;;16.40;91.60;;;;;;6098042;23;19913;-72
2023/11/08 04:27:21;;;;;;;;;;;16.30;91.60;;;;;;6098704;23;20233;-72
2023/11/08 04:29:47;;;;;;;;;;;16.30;91.60;;;;;;6098244;23;20341;-72
2023/11/08 04:32:13;;;;;;;;;;;16.30;91.60;;;;;;6098016;23;19901;-72
2023/11/08 04:34:38;;;;;;;;;;;16.50;91.60;;;;;;6097989;23;19901;-72
2023/11/08 04:37:08;;;;;;;;;;;16.40;91.60;;;;;;6098610;23;19901;-71
2023/11/08 04:39:35;;;;;;;;;;;16.40;91.60;;;;;;6098729;23;19976;-72
2023/11/08 04:42:00;;;;;;;;;;;16.40;91.70;;;;;;6097958;23;19905;-72
2023/11/08 04:44:26;;;;;;;;;;;16.30;91.60;;;;;;6097876;23;19988;-72
2023/11/08 04:46:52;;;;;;;;;;;16.30;91.60;;;;;;6097820;23;19916;-72
2023/11/08 04:49:17;;;;;;;;;;;16.50;91.70;;;;;;6097843;23;19935;-72
2023/11/08 04:51:43;;;;;;;;;;;16.60;91.60;;;;;;6097950;23;19931;-72
2023/11/08 04:54:08;;;;;;;;;;;16.40;91.80;;;;;;6097788;23;19901;-72
2023/11/08 04:56:34;;;;;;;;;;;16.00;91.60;;;;;;6098481;23;19905;-72
2023/11/08 04:58:59;;;;;;;;;;;16.30;91.60;;;;;;6098385;23;20241;-72
2023/11/08 05:01:28;;;;;;;;;;;16.50;91.50;;;;;;6098311;23;19901;-72
2023/11/08 05:03:53;;;;;;;;;;;16.30;91.60;;;;;;6097593;23;19917;-72
2023/11/08 05:06:19;;;;;;;;;;;16.30;91.60;;;;;;6098151;23;19917;-72
2023/11/08 05:08:44;;;;;;;;;;;16.30;91.50;;;;;;6097666;23;19924;-72
2023/11/08 05:11:10;;;;;;;;;;;16.30;91.60;;;;;;6097685;23;19980;-72
2023/11/08 05:13:38;;;;;;;;;;;16.40;91.70;;;;;;6097552;23;19952;-72
2023/11/08 05:16:04;;;;;;;;;;;16.30;91.60;;;;;;6098008;23;19908;-72
2023/11/08 05:18:29;;;;;;;;;;;16.30;91.60;;;;;;6097655;23;20230;-72
2023/11/08 05:20:55;;;;;;;;;;;16.40;91.80;;;;;;6097493;23;20393;-72
2023/11/08 05:23:20;;;;;;;;;;;16.40;91.80;;;;;;6072049;23;20405;-72
2023/11/08 05:25:46;;;;;;;;;;;16.40;91.80;;;;;;6097342;23;19916;-71
2023/11/08 05:28:11;;;;;;;;;;;16.30;91.80;;;;;;6098107;23;19908;-72
2023/11/08 05:30:37;;;;;;;;;;;16.40;92.30;;;;;;6097448;23;19901;-72
2023/11/08 05:33:05;;;;;;;;;;;16.40;91.80;;;;;;6072248;23;19980;-72
2023/11/08 05:35:30;;;;;;;;;;;16.40;91.80;;;;;;6097973;23;19910;-72
2023/11/08 05:37:56;;;;;;;;;;;16.40;91.90;;;;;;6097427;23;19905;-72
2023/11/08 05:40:22;;;;;;;;;;;16.40;91.80;;;;;;6097431;23;19901;-72
2023/11/08 05:42:47;;;;;;;;;;;16.40;91.90;;;;;;6097926;23;19932;-72
2023/11/08 05:45:13;;;;;;;;;;;16.40;91.80;;;;;;6097825;23;20382;-72
2023/11/08 05:47:38;;;;;;;;;;;16.40;91.90;;;;;;6097416;23;20261;-72
2023/11/08 05:50:09;;;;;;;;;;;16.40;91.90;;;;;;6097879;23;19980;-76
2023/11/08 05:52:35;;;;;;;;;;;16.30;90.80;;;;;;6107404;23;19900;-76
2023/11/08 05:55:00;;;;;;;;;;;16.30;91.90;;;;;;6097223;23;20314;-76
2023/11/08 05:57:26;;;;;;;;;;;16.30;91.80;;;;;;6097135;23;19905;-76
2023/11/08 05:59:51;;;;;;;;;;;16.70;91.90;;;;;;6097123;23;19973;-76
2023/11/08 06:02:17;;;;;;;;;;;16.30;91.70;;;;;;6096900;23;20388;-76
2023/11/08 06:04:43;;;;;;;;;;;16.40;91.80;;;;;;6098169;23;19908;-76
2023/11/08 06:07:09;;;;;;;;;;;16.30;91.70;;;;;;6097308;23;19901;-76
2023/11/08 06:09:36;;;;;;;;;;;16.40;91.80;;;;;;6097255;23;19907;-76
2023/11/08 06:12:03;;;;;;;;;;;16.40;91.80;;;;;;6097592;23;19908;-76
2023/11/08 06:14:29;;;;;;;;;;;16.40;91.70;;;;;;6097566;23;19905;-74
2023/11/08 06:16:55;;;;;;;;;;;16.40;91.70;;;;;;6097348;23;19901;-77
2023/11/08 06:19:21;;;;;;;;;;;16.30;91.80;;;;;;6097612;23;19905;-78
2023/11/08 06:21:48;;;;;;;;;;;16.40;91.80;;;;;;6097190;23;19908;-76
2023/11/08 06:24:15;;;;;;;;;;;16.40;91.80;;;;;;6097233;23;19901;-75
2023/11/08 06:26:41;;;;;;;;;;;16.50;91.80;;;;;;6097443;23;19909;-76
2023/11/08 06:29:07;;;;;;;;;;;16.40;91.80;;;;;;6097109;23;19901;-75
2023/11/08 06:31:35;;;;;;;;;;;16.40;91.60;;;;;;6097507;23;19985;-75
2023/11/08 06:34:02;;;;;;;;;;;16.20;91.80;;;;;;6097783;23;19905;-75
2023/11/08 06:36:28;;;;;;;;;;;16.40;91.60;;;;;;6097174;23;19901;-76
2023/11/08 06:38:54;;;;;;;;;;;16.40;91.70;;;;;;6097075;23;19983;-76
2023/11/08 06:41:20;;;;;;;;;;;16.30;91.60;;;;;;6097341;23;19949;-75
2023/11/08 06:43:46;;;;;;;;;;;16.40;91.50;;;;;;6097340;23;19909;-75
2023/11/08 06:46:14;;;;;;;;;;;16.40;91.60;;;;;;6097218;23;20211;-76
2023/11/08 06:48:40;;;;;;;;;;;16.40;91.50;;;;;;6097043;23;20206;-76
2023/11/08 06:51:06;;;;;;;;;;;16.40;91.70;;;;;;6097194;23;19909;-76
2023/11/08 06:53:32;;;;;;;;;;;16.40;91.70;;;;;;6097377;23;19908;-76
2023/11/08 06:55:58;;;;;;;;;;;16.40;91.40;;;;;;6097284;23;19901;-76
2023/11/08 06:58:30;;;;;;;;;;;16.30;91.50;;;;;;6097236;23;19972;-76
2023/11/08 07:00:57;;;;;;;;;;;16.40;91.60;;;;;;6107328;23;20233;-76
2023/11/08 07:03:23;;;;;;;;;;;16.30;91.30;;;;;;6096450;23;20456;-76
2023/11/08 07:05:49;;;;;;;;;;;16.30;91.30;;;;;;6097096;23;19909;-76
2023/11/08 07:08:14;;;;;;;;;;;16.40;91.60;;;;;;6096874;23;19904;-76
2023/11/08 07:10:40;;;;;;;;;;;16.30;91.40;;;;;;6097145;23;19955;-76
2023/11/08 07:13:07;;;;;;;;;;;16.40;91.40;;;;;;6097269;23;19911;-76
2023/11/08 07:15:32;;;;;;;;;;;16.40;91.40;;;;;;6096481;23;19906;-72
2023/11/08 07:17:58;;;;;;;;;;;16.40;91.40;;;;;;6096450;23;19916;-72
2023/11/08 07:20:23;;;;;;;;;;;16.30;91.60;;;;;;6096349;23;20317;-72
2023/11/08 07:22:49;;;;;;;;;;;16.40;91.50;;;;;;6096490;23;19908;-72
2023/11/08 07:25:15;;;;;;;;;;;16.40;91.40;;;;;;6096242;23;19956;-73
2023/11/08 07:27:40;;;;;;;;;;;16.30;91.30;;;;;;6097040;23;20043;-71
2023/11/08 07:30:10;;;;;;;;;;;16.40;91.30;;;;;;6096931;23;19905;-79
2023/11/08 07:32:37;;;;;;;;;;;16.30;90.50;;;;;;6096337;23;19905;-72
2023/11/08 07:35:04;;;;;;;;;;;16.30;91.40;;;;;;6096355;23;19901;-73
2023/11/08 07:37:30;;;;;;;;;;;16.40;90.90;;;;;;6096340;23;20280;-72
2023/11/08 07:39:56;;;;;;;;;;;16.40;91.30;;;;;;6096489;23;19905;-73
2023/11/08 07:42:22;;;;;;;;;;;16.30;91.40;;;;;;6096420;23;19902;-72
2023/11/08 07:44:47;;;;;;;;;;;16.40;91.20;;;;;;6096228;23;19901;-72
2023/11/08 07:47:14;;;;;;;;;;;16.30;91.40;;;;;;6095932;23;20313;-74
2023/11/08 07:49:40;;;;;;;;;;;16.20;91.00;;;;;;6096934;23;19905;-72
2023/11/08 07:52:05;;;;;;;;;;;16.50;91.20;;;;;;6096777;23;19992;-72
2023/11/08 07:54:35;;;;;;;;;;;16.30;91.30;;;;;;6096262;23;19933;-72
2023/11/08 07:57:00;;;;;;;;;;;16.30;91.20;;;;;;6096659;23;19951;-73
2023/11/08 07:59:27;;;;;;;;;;;16.40;91.20;;;;;;6097047;23;20325;-79
2023/11/08 08:01:52;;;;;;;;;;;16.10;91.00;;;;;;6096790;23;19905;-78
2023/11/08 08:04:18;;;;;;;;;;;16.30;91.20;;;;;;6106419;23;19909;-77
2023/11/08 08:06:44;;;;;;;;;;;16.70;91.40;;;;;;6096126;23;19909;-77
2023/11/08 08:09:17;;;;;;;;;;;16.30;91.30;;;;;;6096980;23;19901;-77
2023/11/08 08:11:46;;;;;;;;;;;16.30;88.70;;;;;;6106083;23;19957;-74
2023/11/08 08:14:12;;;;;;;;;;;16.30;88.60;;;;;;6096560;23;20240;-74
2023/11/08 08:16:41;;;;;;;;;;;16.40;91.20;;;;;;6096946;23;20212;-84
2023/11/08 08:19:08;;;;;;;;;;;16.30;87.20;;;;;;6096674;23;20249;-73
2023/11/08 08:21:34;;;;;;;;;;;16.30;91.30;;;;;;6098798;23;19908;-76
2023/11/08 08:24:00;;;;;;;;;;;16.30;91.20;;;;;;6096814;23;19905;-73
2023/11/08 08:26:27;;;;;;;;;;;16.30;91.30;;;;;;6097228;23;20037;-77
2023/11/08 08:28:52;;;;;;;;;;;16.40;91.40;;;;;;6096228;23;19936;-74
2023/11/08 08:31:18;;;;;;;;;;;16.20;91.40;;;;;;6096200;23;19908;-74
2023/11/08 08:33:44;;;;;;;;;;;16.30;91.40;;;;;;6096124;23;19908;-74
2023/11/08 08:36:11;;;;;;;;;;;16.20;91.50;;;;;;6096250;23;20195;-74
2023/11/08 08:38:37;;;;;;;;;;;16.20;91.10;;;;;;6096786;23;19912;-75
2023/11/08 08:41:04;;;;;;;;;;;16.30;91.30;;;;;;6096127;23;19933;-78
2023/11/08 08:43:30;;;;;;;;;;;16.20;91.20;;;;;;6096272;23;20236;-78
2023/11/08 08:45:56;;;;;;;;;;;16.40;91.40;;;;;;6096117;23;19944;-77
2023/11/08 08:48:22;;;;;;;;;;;16.20;91.30;;;;;;6096703;23;19902;-80
2023/11/08 08:50:48;;;;;;;;;;;16.30;91.40;;;;;;6096310;23;20353;-80
2023/11/08 08:53:14;;;;;;;;;;;16.20;91.50;;;;;;6096666;23;19964;-79
2023/11/08 08:55:40;;;;;;;;;;;16.30;91.60;;;;;;6097307;23;19978;-82
2023/11/08 08:58:07;;;;;;;;;;;16.30;91.50;;;;;;6096933;23;19905;-79
2023/11/08 09:00:32;;;;;;;;;;;16.40;91.40;;;;;;6098428;23;19956;-80
2023/11/08 09:02:58;;;;;;;;;;;16.30;91.30;;;;;;6097975;23;19913;-77
2023/11/08 09:05:25;;;;;;;;;;;16.20;91.50;;;;;;6097714;23;20222;-77
2023/11/08 09:07:51;;;;;;;;;;;16.30;91.50;;;;;;6098017;23;19963;-83
2023/11/08 09:10:17;;;;;;;;;;;16.20;91.60;;;;;;6098332;23;19901;-82
2023/11/08 09:12:43;;;;;;;;;;;16.20;91.30;;;;;;6098426;23;20025;-79
2023/11/08 09:15:11;;;;;;;;;;;16.20;91.60;;;;;;6099293;23;20277;-76
2023/11/08 09:17:36;;;;;;;;;;;16.30;91.20;;;;;;6098157;23;19935;-79
2023/11/08 09:20:08;;;;;;;;;;;16.20;91.50;;;;;;6098408;23;20233;-75
2023/11/08 09:22:34;;;;;;;;;;;16.20;91.40;;;;;;6107171;23;19948;-75
2023/11/08 09:25:03;;;;;;;;;;;16.30;91.70;;;;;;6097876;23;19901;-72
2023/11/08 09:27:30;;;;;;;;;;;16.20;91.50;;;;;;6097568;23;19908;-73
2023/11/08 09:29:56;;;;;;;;;;;16.10;91.40;;;;;;6098053;23;20259;-75
2023/11/08 09:32:22;;;;;;;;;;;16.30;91.60;;;;;;6098232;23;19901;-75
2023/11/08 09:34:51;;;;;;;;;;;16.50;91.70;;;;;;6098098;23;19908;-79
2023/11/08 09:37:17;;;;;;;;;;;16.30;89.70;;;;;;6097647;23;19921;-79
2023/11/08 09:39:49;;;;;;;;;;;16.20;91.60;;;;;;6097868;23;19905;-79
2023/11/08 09:42:18;;;;;;;;;;;16.30;89.50;;;;;;6107819;23;19988;-79
2023/11/08 09:44:46;;;;;;;;;;;16.30;88.40;;;;;;6097654;23;20376;-79
2023/11/08 09:47:12;;;;;;;;;;;16.20;91.40;;;;;;6097381;23;19971;-79
2023/11/08 09:49:37;;;;;;;;;;;16.30;91.70;;;;;;6097414;23;19972;-79
2023/11/08 09:52:03;;;;;;;;;;;16.60;91.50;;;;;;6097412;23;19905;-79
2023/11/08 09:54:29;;;;;;;;;;;16.40;90.90;;;;;;6097350;23;19940;-79
2023/11/08 09:56:54;;;;;;;;;;;16.40;91.50;;;;;;6097853;23;19905;-79
2023/11/08 09:59:23;;;;;;;;;;;16.40;91.20;;;;;;6097313;23;20321;-79
2023/11/08 10:01:49;;;;;;;;;;;16.40;91.20;;;;;;6096950;23;20237;-79
2023/11/08 10:04:15;;;;;;;;;;;16.80;91.40;;;;;;6107292;23;19901;-79
2023/11/08 10:06:41;;;;;;;;;;;16.50;91.50;;;;;;6097372;23;19916;-79
2023/11/08 10:09:08;;;;;;;;;;;16.60;91.40;;;;;;6096995;23;20259;-79
2023/11/08 10:11:37;;;;;;;;;;;16.40;91.30;;;;;;6097466;23;19956;-79
2023/11/08 10:14:03;;;;;;;;;;;16.50;91.70;;;;;;6097210;23;19905;-79
2023/11/08 10:16:42;;;;;;;;;;;16.50;91.60;;;;;;6097186;23;19972;-78
2023/11/08 10:19:09;;;;;;;;;;;16.60;91.70;;;;;;6106739;23;19934;-79
2023/11/08 10:21:36;;;;;;;;;;;16.50;91.70;;;;;;6106775;23;19944;-78
2023/11/08 10:24:08;;;;;;;;;;;16.40;91.50;;;;;;6072253;23;19901;-79
2023/11/08 10:26:36;;;;;;;;;;;16.50;89.10;;;;;;6096845;23;19909;-79
2023/11/08 10:29:05;;;;;;;;;;;16.50;91.80;;;;;;6096972;23;19901;-79
2023/11/08 10:31:40;;;;;;;;;;;16.50;91.90;;;;;;6096820;23;19936;-79
2023/11/08 10:34:06;;;;;;;;;;;16.60;89.10;;;;;;6106766;23;19901;-79
2023/11/08 10:36:33;;;;;;;;;;;16.50;92.00;;;;;;6096956;23;20273;-78
2023/11/08 10:38:59;;;;;;;;;;;16.50;91.80;;;;;;6097362;23;19901;-78
2023/11/08 10:41:25;;;;;;;;;;;16.50;91.90;;;;;;6097305;23;20264;-79
2023/11/08 10:44:06;;;;;;;;;;;16.60;92.00;;;;;;6096884;23;19916;-78
2023/11/08 10:46:32;;;;;;;;;;;16.50;91.80;;;;;;6097034;23;20317;-77
2023/11/08 10:48:59;;;;;;;;;;;16.50;92.00;;;;;;6097108;23;20313;-76
2023/11/08 10:51:24;;;;;;;;;;;16.60;92.00;;;;;;6106657;23;20325;-76
2023/11/08 10:53:49;;;;;;;;;;;16.60;92.00;;;;;;6096684;23;19980;-77
2023/11/08 10:56:17;;;;;;;;;;;16.60;91.90;;;;;;6096811;23;19956;-77
2023/11/08 10:58:46;;;;;;;;;;;16.50;91.80;;;;;;6096759;23;19901;-77
2023/11/08 11:01:12;;;;;;;;;;;16.50;91.80;;;;;;6096771;23;19905;-75
2023/11/08 11:03:41;;;;;;;;;;;16.60;91.80;;;;;;6096305;23;19984;-75
2023/11/08 11:06:07;;;;;;;;;;;16.60;92.00;;;;;;6096641;23;19941;-74
2023/11/08 11:08:33;;;;;;;;;;;16.60;91.90;;;;;;6097347;23;19901;-72
2023/11/08 11:10:59;;;;;;;;;;;16.60;92.00;;;;;;6096557;23;19989;-72
2023/11/08 11:13:29;;;;;;;;;;;16.60;91.80;;;;;;6096665;23;19901;-72
2023/11/08 11:16:15;;;;;;;;;;;16.40;91.90;;;;;;6106755;23;20245;-72
2023/11/08 11:18:43;;;;;;;;;;;16.70;89.30;;;;;;6106491;23;19950;-73
2023/11/08 11:21:25;;;;;;;;;;;16.60;92.30;;;;;;6106173;23;19908;-72
2023/11/08 11:23:51;;;;;;;;;;;16.70;89.10;;;;;;6106266;23;19924;-73
2023/11/08 11:26:35;;;;;;;;;;;16.60;91.90;;;;;;6096791;23;19913;-73
2023/11/08 11:29:01;;;;;;;;;;;16.70;89.10;;;;;;6096477;23;20342;-72
2023/11/08 11:31:38;;;;;;;;;;;16.60;91.90;;;;;;6096461;23;20325;-72
2023/11/08 11:34:27;;;;;;;;;;;16.60;88.80;;;;;;6096607;23;19975;-72
2023/11/08 11:37:12;;;;;;;;;;;16.60;91.80;;;;;;6078823;23;19916;-73
2023/11/08 11:39:39;;;;;;;;;;;16.70;89.30;;;;;;6096589;23;19901;-74
2023/11/08 11:42:06;;;;;;;;;;;16.70;91.90;;;;;;6096364;23;20352;-72
2023/11/08 11:44:55;;;;;;;;;;;16.40;92.00;;;;;;6096293;23;20326;-72
2023/11/08 11:47:27;;;;;;;;;;;16.60;89.10;;;;;;6077302;23;19909;-81
2023/11/08 11:49:55;;;;;;;;;;;16.30;91.90;;;;;;6106539;23;20237;-73
2023/11/08 11:52:24;;;;;;;;;;;16.80;91.90;;;;;;6096524;23;19908;-73
2023/11/08 11:54:51;;;;;;;;;;;16.60;92.00;;;;;;6096874;23;19908;-73
2023/11/08 11:57:21;;;;;;;;;;;16.60;91.90;;;;;;6096539;23;19901;-72
2023/11/08 11:59:47;;;;;;;;;;;16.70;92.00;;;;;;6105975;23;19913;-73
2023/11/08 12:02:13;;;;;;;;;;;16.60;91.70;;;;;;6096219;23;20325;-73
2023/11/08 12:04:39;;;;;;;;;;;16.40;91.80;;;;;;6096876;23;19924;-73
2023/11/08 12:07:09;;;;;;;;;;;16.70;91.90;;;;;;6096829;23;20218;-73
2023/11/08 12:09:35;;;;;;;;;;;16.80;89.00;;;;;;6096410;23;20361;-73
2023/11/08 12:12:01;;;;;;;;;;;16.80;92.00;;;;;;6096739;23;19964;-73
2023/11/08 12:14:27;;;;;;;;;;;16.60;91.70;;;;;;6096367;23;19909;-73
2023/11/08 12:16:52;;;;;;;;;;;16.60;91.90;;;;;;6096411;23;19905;-72
2023/11/08 12:19:18;;;;;;;;;;;16.70;91.90;;;;;;6096259;23;19901;-73
2023/11/08 12:21:47;;;;;;;;;;;16.60;92.00;;;;;;6096324;23;20229;-74
2023/11/08 12:24:13;;;;;;;;;;;16.70;92.00;;;;;;6096237;23;19901;-69
2023/11/08 12:26:39;;;;;;;;;;;16.70;91.80;;;;;;6096665;23;19936;-70
2023/11/08 12:29:08;;;;;;;;;;;16.70;91.90;;;;;;6096198;23;20337;-71
2023/11/08 12:31:35;;;;;;;;;;;16.60;88.20;;;;;;6096150;23;19907;-73
2023/11/08 12:34:04;;;;;;;;;;;16.70;91.90;;;;;;6097970;23;19901;-73
2023/11/08 12:36:30;;;;;;;;;;;16.60;88.80;;;;;;6098114;23;19901;-73
2023/11/08 12:38:56;;;;;;;;;;;16.70;91.70;;;;;;6098032;23;19912;-73
2023/11/08 12:41:21;;;;;;;;;;;16.70;91.80;;;;;;6098043;23;19901;-73
2023/11/08 12:43:57;;;;;;;;;;;16.60;91.80;;;;;;6098085;23;20211;-73
2023/11/08 12:46:22;;;;;;;;;;;16.40;91.80;;;;;;6098052;23;19913;-73
2023/11/08 12:48:54;;;;;;;;;;;16.60;91.30;;;;;;6072437;23;20250;-73
2023/11/08 12:51:20;;;;;;;;;;;16.70;91.90;;;;;;6097884;23;19901;-73
2023/11/08 12:53:48;;;;;;;;;;;16.60;91.70;;;;;;6097843;23;20082;-74
2023/11/08 12:56:13;;;;;;;;;;;16.70;88.60;;;;;;6097908;23;19901;-73
2023/11/08 12:58:39;;;;;;;;;;;16.70;91.80;;;;;;6097830;23;19973;-75
2023/11/08 13:01:16;;;;;;;;;;;16.70;91.80;;;;;;6098511;23;19902;-73
2023/11/08 13:03:42;;;;;;;;;;;16.60;91.60;;;;;;6097470;23;19944;-73
2023/11/08 13:06:08;;;;;;;;;;;16.70;91.70;;;;;;6097539;23;19916;-73
2023/11/08 13:08:33;;;;;;;;;;;16.70;91.60;;;;;;6097673;23;20333;-74
2023/11/08 13:10:59;;;;;;;;;;;16.60;91.60;;;;;;6097643;23;19976;-74
2023/11/08 13:13:25;;;;;;;;;;;16.60;91.60;;;;;;6097676;23;19905;-74
2023/11/08 13:15:52;;;;;;;;;;;16.70;91.80;;;;;;6097613;23;20329;-73
2023/11/08 13:18:19;;;;;;;;;;;16.60;91.60;;;;;;6098191;23;19901;-73
2023/11/08 13:20:45;;;;;;;;;;;16.60;91.80;;;;;;6097632;23;19932;-73
2023/11/08 13:23:11;;;;;;;;;;;16.60;91.80;;;;;;6097695;23;19908;-73
2023/11/08 13:25:36;;;;;;;;;;;16.70;91.80;;;;;;6097371;23;19913;-73
2023/11/08 13:28:02;;;;;;;;;;;16.70;91.80;;;;;;6097827;23;19901;-73
2023/11/08 13:30:29;;;;;;;;;;;16.60;91.70;;;;;;6098152;23;19901;-74
2023/11/08 13:32:54;;;;;;;;;;;16.70;91.80;;;;;;6097469;23;20258;-73
2023/11/08 13:35:21;;;;;;;;;;;16.70;91.70;;;;;;6097476;23;19901;-73
2023/11/08 13:37:48;;;;;;;;;;;16.70;91.60;;;;;;6107104;23;19924;-73
2023/11/08 13:40:13;;;;;;;;;;;16.60;91.80;;;;;;6097406;23;19902;-74
2023/11/08 13:42:39;;;;;;;;;;;16.60;91.80;;;;;;6097428;23;20371;-78
2023/11/08 13:45:05;;;;;;;;;;;16.70;91.80;;;;;;6096702;23;19901;-78
2023/11/08 13:47:31;;;;;;;;;;;16.60;91.00;;;;;;6097262;23;20240;-78
2023/11/08 13:49:56;;;;;;;;;;;16.60;91.80;;;;;;6071795;23;19909;-78
2023/11/08 13:52:22;;;;;;;;;;;16.60;91.70;;;;;;6097266;23;19902;-78
2023/11/08 13:54:48;;;;;;;;;;;16.60;91.60;;;;;;6097196;23;19902;-78
2023/11/08 13:57:14;;;;;;;;;;;16.60;91.70;;;;;;6097266;23;20313;-78
2023/11/08 13:59:39;;;;;;;;;;;16.60;91.70;;;;;;6097798;23;19901;-73
2023/11/08 14:02:05;;;;;;;;;;;16.50;91.50;;;;;;6097538;23;20641;-77
2023/11/08 14:04:31;;;;;;;;;;;16.60;91.70;;;;;;6097188;23;19984;-78
2023/11/08 14:06:57;;;;;;;;;;;16.60;91.70;;;;;;6097179;23;19913;-77
2023/11/08 14:09:23;;;;;;;;;;;16.50;91.60;;;;;;6071927;23;20381;-77
2023/11/08 14:11:49;;;;;;;;;;;16.60;91.50;;;;;;6097705;23;20313;-77
2023/11/08 14:14:14;;;;;;;;;;;16.60;91.60;;;;;;6097643;23;19905;-78